Time;durP1;ratioP1;P1;durP2;ratioP2;P2;SDS_P1;SDS_P2;PMS_P1;PMS_P2;Temp;Humidity;BMP_temperature;BMP_pressure;BME280_temperature;BME280_humidity;BME280_pressure;Samples;Min_cycle;Max_cycle;Signal;HPM_P1;HPM_P2
2021/05/30 00:01:07;;;;;;;3.58;1.90;;;;;;;9.17;68.33;99571.81;4987581;28;20026;-75
2021/05/30 00:03:32;;;;;;;3.35;1.30;;;;;;;9.20;69.10;99577.69;4984129;28;20031;-75
2021/05/30 00:05:58;;;;;;;4.10;1.67;;;;;;;9.17;68.63;99571.81;4976555;28;20037;-74
2021/05/30 00:08:23;;;;;;;6.90;1.70;;;;;;;9.14;68.24;99566.72;4961796;28;20085;-74
2021/05/30 00:10:49;;;;;;;3.30;1.70;;;;;;;9.34;67.19;99561.75;4954914;28;20073;-74
2021/05/30 00:13:14;;;;;;;4.10;1.67;;;;;;;9.24;67.06;99567.34;4972050;28;20045;-74
2021/05/30 00:15:40;;;;;;;4.43;1.58;;;;;;;9.36;68.13;99570.53;4984029;28;20484;-74
2021/05/30 00:18:05;;;;;;;3.85;1.50;;;;;;;9.18;68.69;99557.28;4991804;28;20034;-74
2021/05/30 00:20:30;;;;;;;2.35;1.60;;;;;;;9.18;68.81;99579.72;4974252;28;20019;-74
2021/05/30 00:22:56;;;;;;;3.35;1.40;;;;;;;9.03;69.10;99581.44;4972018;28;20031;-74
2021/05/30 00:25:21;;;;;;;3.40;1.55;;;;;;;8.96;69.95;99580.47;4982697;28;20026;-74
2021/05/30 00:27:47;;;;;;;2.08;1.65;;;;;;;8.85;70.56;99553.84;4973580;28;20484;-74
2021/05/30 00:30:13;;;;;;;3.47;1.45;;;;;;;8.74;70.88;99565.84;4986922;28;20396;-74
2021/05/30 00:32:38;;;;;;;3.00;1.42;;;;;;;8.76;71.18;99569.22;4978492;28;20026;-74
2021/05/30 00:35:04;;;;;;;3.38;1.27;;;;;;;8.83;71.22;99575.63;4989798;28;20058;-72
2021/05/30 00:37:29;;;;;;;3.33;1.83;;;;;;;8.58;71.91;99580.22;4985962;28;20030;-73
2021/05/30 00:39:54;;;;;;;4.18;1.70;;;;;;;8.40;72.28;99590.38;4987902;28;20034;-73
2021/05/30 00:42:20;;;;;;;3.35;1.55;;;;;;;8.16;73.31;99578.56;4973718;28;20037;-72
2021/05/30 00:44:45;;;;;;;2.97;1.70;;;;;;;8.03;74.01;99573.66;4974039;28;20043;-73
2021/05/30 00:47:10;;;;;;;3.33;1.80;;;;;;;8.00;74.55;99590.19;4973313;28;20481;-73
2021/05/30 00:49:36;;;;;;;4.32;2.17;;;;;;;7.86;74.90;99577.38;4975553;28;20042;-73
2021/05/30 00:52:04;;;;;;;5.95;2.40;;;;;;;7.77;74.99;99576.50;4976315;28;20018;-72
2021/05/30 00:54:29;;;;;;;2.67;1.83;;;;;;;7.85;75.09;99584.59;4988627;28;20423;-72
2021/05/30 00:56:55;;;;;;;3.08;1.95;;;;;;;7.81;75.43;99582.41;4983917;28;20034;-73
2021/05/30 00:59:20;;;;;;;3.13;1.92;;;;;;;7.93;74.93;99578.38;4993071;28;20389;-72
2021/05/30 01:01:48;;;;;;;3.30;1.77;;;;;;;7.86;75.19;99572.00;4990790;28;20113;-72
2021/05/30 01:04:13;;;;;;;3.90;2.05;;;;;;;7.82;75.60;99576.84;4991331;28;20026;-73
2021/05/30 01:06:40;;;;;;;4.18;2.28;;;;;;;7.83;75.87;99592.03;5003369;28;20164;-73
2021/05/30 01:09:06;;;;;;;2.85;2.10;;;;;;;7.81;75.92;99583.25;4992275;28;20033;-73
2021/05/30 01:11:32;;;;;;;2.85;1.63;;;;;;;7.80;75.61;99596.88;4992049;28;20440;-72
2021/05/30 01:13:58;;;;;;;2.53;1.88;;;;;;;7.80;76.24;99588.81;4986450;28;20094;-73
2021/05/30 01:16:25;;;;;;;2.35;1.55;;;;;;;7.70;76.06;99588.94;4991620;28;20026;-75
2021/05/30 01:18:53;;;;;;;2.78;1.90;;;;;;;7.71;76.31;99584.44;4991218;28;20073;-74
2021/05/30 01:21:19;;;;;;;4.15;1.90;;;;;;;7.79;76.43;99592.50;4990207;28;20041;-75
2021/05/30 01:23:49;;;;;;;2.65;1.83;;;;;;;7.63;76.68;99585.25;4987394;28;20157;-75
2021/05/30 01:26:14;;;;;;;3.70;2.03;;;;;;;7.72;77.12;99581.53;4977024;28;20392;-75
2021/05/30 01:28:40;;;;;;;2.47;1.65;;;;;;;7.68;76.91;99583.75;4977832;28;20026;-75
2021/05/30 01:31:05;;;;;;;4.00;2.40;;;;;;;7.66;76.16;99579.53;4979203;28;20061;-75
2021/05/30 01:33:31;;;;;;;4.20;1.88;;;;;;;7.65;76.49;99585.91;4969403;28;20496;-74
2021/05/30 01:35:56;;;;;;;5.13;1.90;;;;;;;7.45;76.88;99585.38;4956209;28;20039;-74
2021/05/30 01:38:21;;;;;;;3.22;1.88;;;;;;;7.28;77.77;99571.00;4962557;28;20026;-74
2021/05/30 01:40:47;;;;;;;5.10;2.00;;;;;;;7.27;77.70;99582.78;4976551;28;20028;-74
2021/05/30 01:43:12;;;;;;;4.55;2.00;;;;;;;7.31;78.10;99604.81;4979741;28;20062;-73
2021/05/30 01:45:38;;;;;;;3.33;1.90;;;;;;;7.20;78.57;99606.81;4976645;28;20066;-75
2021/05/30 01:48:04;;;;;;;4.35;1.98;;;;;;;7.19;78.73;99607.81;4966752;28;20051;-75
2021/05/30 01:50:31;;;;;;;2.85;1.70;;;;;;;7.13;79.22;99603.09;4969828;28;20101;-75
2021/05/30 01:53:01;;;;;;;3.33;2.13;;;;;;;7.14;79.52;99607.44;4970096;28;20065;-74
2021/05/30 01:55:29;;;;;;;2.78;1.90;;;;;;;7.14;79.23;99591.31;4990698;28;20034;-74
2021/05/30 01:57:56;;;;;;;2.80;1.58;;;;;;;7.32;79.03;99609.22;4970930;28;20093;-72
2021/05/30 02:00:23;;;;;;;3.03;2.05;;;;;;;7.18;79.45;99599.91;4981513;28;20089;-70
2021/05/30 02:02:53;;;;;;;3.40;1.90;;;;;;;7.24;78.59;99610.03;4988649;28;20205;-71
2021/05/30 02:05:20;;;;;;;3.58;2.20;;;;;;;7.17;79.21;99612.50;4987118;28;20029;-74
2021/05/30 02:07:48;;;;;;;3.90;2.35;;;;;;;6.97;79.21;99597.63;4969037;28;20527;-71
2021/05/30 02:10:14;;;;;;;4.75;2.22;;;;;;;7.08;79.57;99613.50;4983950;28;20026;-72
2021/05/30 02:12:41;;;;;;;6.03;2.13;;;;;;;7.10;79.51;99613.31;4993842;28;20038;-73
2021/05/30 02:15:07;;;;;;;10.52;2.42;;;;;;;6.98;80.00;99607.38;4986123;28;20035;-73
2021/05/30 02:17:34;;;;;;;3.67;2.33;;;;;;;6.92;80.45;99610.72;4974520;28;20026;-72
2021/05/30 02:19:59;;;;;;;3.35;2.20;;;;;;;6.74;80.61;99590.13;4974607;28;20117;-72
2021/05/30 02:22:24;;;;;;;3.15;2.25;;;;;;;6.75;81.00;99599.00;4974153;28;20113;-71
2021/05/30 02:24:50;;;;;;;5.10;2.50;;;;;;;6.77;81.04;99618.53;4987596;28;20031;-71
2021/05/30 02:27:15;;;;;;;4.55;2.25;;;;;;;6.72;81.05;99608.25;4974373;28;20223;-73
2021/05/30 02:29:43;;;;;;;3.45;2.33;;;;;;;6.78;80.91;99615.66;4974515;28;20082;-71
2021/05/30 02:32:11;;;;;;;6.72;3.00;;;;;;;6.85;81.43;99613.19;4979217;28;20101;-71
2021/05/30 02:34:42;;;;;;;3.80;2.35;;;;;;;6.99;80.76;99611.75;4986166;28;20535;-71
2021/05/30 02:37:08;;;;;;;3.65;2.28;;;;;;;6.94;80.21;99609.56;4993688;28;20141;-73
2021/05/30 02:39:34;;;;;;;3.45;2.33;;;;;;;7.04;80.02;99620.19;4979130;28;20027;-72
2021/05/30 02:41:59;;;;;;;5.32;2.75;;;;;;;6.94;80.61;99614.06;4988396;28;20023;-72
2021/05/30 02:44:25;;;;;;;4.72;2.70;;;;;;;6.89;80.25;99622.66;4973085;28;20472;-71
2021/05/30 02:46:50;;;;;;;4.85;2.60;;;;;;;6.91;79.85;99625.16;4986724;28;20037;-72
2021/05/30 02:49:16;;;;;;;3.40;2.47;;;;;;;6.84;80.29;99616.03;4993685;28;20134;-70
2021/05/30 02:51:41;;;;;;;4.05;2.80;;;;;;;6.90;80.42;99628.88;4988745;28;20062;-73
2021/05/30 02:54:06;;;;;;;4.60;2.33;;;;;;;6.85;80.44;99625.81;4974099;28;20031;-71
2021/05/30 02:56:32;;;;;;;8.07;2.65;;;;;;;6.75;81.04;99624.06;4974704;28;20063;-72
2021/05/30 02:58:57;;;;;;;4.57;2.67;;;;;;;6.64;81.40;99621.66;4973607;28;20019;-71
2021/05/30 03:01:22;;;;;;;4.47;2.47;;;;;;;6.46;81.55;99605.56;4974228;28;20031;-72
2021/05/30 03:03:49;;;;;;;3.53;2.40;;;;;;;6.50;81.61;99616.84;4973816;28;20041;-71
2021/05/30 03:06:14;;;;;;;4.78;2.47;;;;;;;6.39;82.30;99619.78;4972346;28;20400;-72
2021/05/30 03:08:40;;;;;;;4.22;2.60;;;;;;;6.33;82.86;99622.09;4973552;28;20034;-71
2021/05/30 03:11:06;;;;;;;5.30;2.90;;;;;;;6.29;83.39;99617.19;4973767;28;20058;-71
2021/05/30 03:13:31;;;;;;;5.00;2.33;;;;;;;6.34;83.45;99629.16;4975756;28;20077;-72
2021/05/30 03:15:57;;;;;;;3.85;2.75;;;;;;;6.31;83.09;99620.56;4969137;28;20499;-74
2021/05/30 03:18:22;;;;;;;4.80;2.63;;;;;;;6.32;83.39;99631.16;4953451;28;20026;-71
2021/05/30 03:20:47;;;;;;;5.05;3.08;;;;;;;6.22;83.93;99621.50;4954418;28;20491;-72
2021/05/30 03:23:13;;;;;;;4.60;3.10;;;;;;;6.32;83.67;99635.69;4979103;28;20053;-75
2021/05/30 03:25:39;;;;;;;6.07;2.97;;;;;;;6.23;84.18;99629.38;4987930;28;20023;-74
2021/05/30 03:28:04;;;;;;;4.90;3.05;;;;;;;6.21;83.87;99623.34;4972086;28;20126;-71
2021/05/30 03:30:30;;;;;;;5.38;3.33;;;;;;;6.23;84.09;99632.06;4973297;28;20043;-72
2021/05/30 03:32:55;;;;;;;5.97;3.25;;;;;;;6.21;84.04;99631.41;4988120;28;20065;-74
2021/05/30 03:35:20;;;;;;;5.07;2.72;;;;;;;6.18;84.16;99638.91;4991869;28;20048;-71
2021/05/30 03:37:46;;;;;;;14.00;3.90;;;;;;;6.26;84.12;99631.78;4990627;28;20809;-70
2021/05/30 03:43:16;;;;;;;4.18;2.67;;;;;;;6.30;83.63;99635.84;5005165;28;20876;-71
2021/05/30 03:45:42;;;;;;;5.10;2.88;;;;;;;6.34;82.89;99631.00;5000267;28;20030;-72
2021/05/30 03:48:07;;;;;;;5.03;3.08;;;;;;;6.60;82.84;99639.06;4982050;28;20054;-70
2021/05/30 03:50:34;;;;;;;5.25;3.28;;;;;;;6.56;82.78;99641.25;4980365;28;20026;-71
2021/05/30 03:53:00;;;;;;;4.57;2.92;;;;;;;6.62;82.63;99644.31;4981163;28;20161;-74
2021/05/30 03:55:25;;;;;;;5.47;3.08;;;;;;;6.63;82.25;99641.47;4987799;28;20121;-71
2021/05/30 03:57:51;;;;;;;6.28;3.50;;;;;;;6.68;82.96;99647.22;4990598;28;20061;-72
2021/05/30 04:00:18;;;;;;;4.13;2.92;;;;;;;6.63;82.79;99633.41;5001606;28;20392;-71
2021/05/30 04:02:44;;;;;;;4.07;2.95;;;;;;;6.76;82.42;99633.84;4972775;28;20409;-72
2021/05/30 04:05:10;;;;;;;5.88;3.08;;;;;;;6.80;81.91;99643.25;4990918;28;20080;-72
2021/05/30 04:07:36;;;;;;;4.82;2.67;;;;;;;6.90;81.09;99645.84;4992035;28;20092;-74
2021/05/30 04:10:07;;;;;;;4.65;2.58;;;;;;;6.89;81.25;99643.31;4991881;28;20504;-71
2021/05/30 04:12:33;;;;;;;4.35;2.30;;;;;;;7.02;80.53;99639.19;4981536;28;20617;-74
2021/05/30 04:14:58;;;;;;;3.75;2.42;;;;;;;7.05;80.50;99632.66;4972452;28;20050;-72
2021/05/30 04:17:23;;;;;;;4.82;2.65;;;;;;;7.13;79.78;99640.75;4972356;28;20109;-71
2021/05/30 04:19:49;;;;;;;4.32;2.80;;;;;;;7.13;80.36;99634.53;4972771;28;20034;-72
2021/05/30 04:22:14;;;;;;;5.72;2.47;;;;;;;7.18;80.79;99646.50;4978655;28;20027;-74
2021/05/30 04:24:39;;;;;;;4.18;2.70;;;;;;;7.42;79.98;99640.38;4991753;28;20113;-71
2021/05/30 04:27:05;;;;;;;4.55;2.50;;;;;;;7.45;79.97;99647.28;5006735;28;20018;-73
2021/05/30 04:29:30;;;;;;;7.18;3.00;;;;;;;7.47;79.15;99643.44;4987945;28;20069;-71
2021/05/30 04:31:55;;;;;;;4.93;2.60;;;;;;;7.61;79.16;99657.28;4979605;28;20496;-72
2021/05/30 04:34:21;;;;;;;4.30;3.00;;;;;;;7.66;79.03;99645.00;4983973;28;20030;-73
2021/05/30 04:36:46;;;;;;;4.30;2.90;;;;;;;7.67;78.45;99643.97;4974845;28;20056;-72
2021/05/30 04:39:11;;;;;;;3.47;2.53;;;;;;;7.78;77.99;99645.56;4970649;28;20405;-71
2021/05/30 04:41:36;;;;;;;4.40;3.05;;;;;;;7.92;78.47;99651.31;4969011;28;20122;-73
2021/05/30 04:44:02;;;;;;;4.82;2.72;;;;;;;7.97;77.81;99648.97;4989381;28;20030;-71
2021/05/30 04:46:27;;;;;;;4.43;2.85;;;;;;;8.06;77.74;99640.69;4989292;28;20077;-73
2021/05/30 04:48:52;;;;;;;4.60;2.97;;;;;;;8.22;77.07;99647.97;4989580;28;20041;-71
2021/05/30 04:51:18;;;;;;;9.38;4.10;;;;;;;8.24;76.75;99640.56;4989904;28;20022;-71
2021/05/30 04:53:45;;;;;;;7.55;3.25;;;;;;;8.40;76.42;99652.38;4974510;28;20483;-73
2021/05/30 04:56:13;;;;;;;4.82;3.20;;;;;;;8.40;76.49;99633.50;4986555;28;20026;-73
2021/05/30 04:58:38;;;;;;;4.93;2.65;;;;;;;8.49;75.70;99630.66;4973273;28;20066;-72
2021/05/30 05:01:05;;;;;;;4.55;2.38;;;;;;;8.77;75.77;99646.44;4970426;28;20071;-74
2021/05/30 05:03:32;;;;;;;4.45;2.90;;;;;;;8.87;75.20;99632.78;4986279;28;20030;-73
2021/05/30 05:05:57;;;;;;;5.13;2.90;;;;;;;9.05;75.19;99643.38;4971664;28;20022;-73
2021/05/30 05:08:23;;;;;;;6.32;3.17;;;;;;;9.16;74.59;99651.09;4988104;28;20057;-73
2021/05/30 05:10:49;;;;;;;4.57;3.28;;;;;;;9.37;74.20;99648.66;4971368;28;20085;-73
2021/05/30 05:13:15;;;;;;;4.28;2.75;;;;;;;9.55;73.96;99637.59;4971611;28;20029;-71
2021/05/30 05:15:45;;;;;;;5.28;2.92;;;;;;;9.77;73.58;99644.09;4980510;28;20022;-71
2021/05/30 05:18:14;;;;;;;;;;;;;;;10.00;73.09;99640.56;4990042;28;20054;-72
2021/05/30 05:20:39;;;;;;;4.13;2.83;;;;;;;10.09;72.69;99628.69;4991210;28;19968;-71
2021/05/30 05:23:04;;;;;;;4.88;3.00;;;;;;;10.32;71.87;99636.81;4988571;28;20026;-72
2021/05/30 05:25:34;;;;;;;5.80;3.03;;;;;;;10.59;71.27;99638.13;4971849;28;20504;-73
2021/05/30 05:28:00;;;;;;;7.82;3.03;;;;;;;10.83;70.72;99638.91;4973339;28;20019;-72
2021/05/30 05:30:26;;;;;;;4.85;3.28;;;;;;;11.08;69.93;99644.88;4984326;28;20792;-72
2021/05/30 05:32:51;;;;;;;4.88;2.95;;;;;;;11.22;69.64;99638.66;4966172;28;20039;-72
2021/05/30 05:35:17;;;;;;;4.25;3.00;;;;;;;11.48;69.12;99631.91;4968255;28;20058;-77
2021/05/30 05:37:42;;;;;;;7.00;3.45;;;;;;;11.68;68.44;99642.97;4952578;28;20051;-73
2021/05/30 05:40:08;;;;;;;4.72;3.03;;;;;;;11.85;66.68;99628.19;4953439;28;20023;-72
2021/05/30 05:42:37;;;;;;;5.20;3.30;;;;;;;12.03;66.16;99630.50;4970880;28;20023;-71
2021/05/30 05:45:04;;;;;;;4.45;2.83;;;;;;;12.20;66.41;99626.50;4969952;28;20026;-73
2021/05/30 05:47:30;;;;;;;4.80;3.20;;;;;;;12.48;65.78;99637.41;4962694;28;20519;-72
2021/05/30 05:49:55;;;;;;;4.63;3.17;;;;;;;12.65;64.97;99623.53;4966223;28;20035;-79
2021/05/30 05:52:20;;;;;;;5.35;3.08;;;;;;;12.84;64.92;99636.44;4971129;28;20062;-78
2021/05/30 05:54:46;;;;;;;4.78;3.05;;;;;;;13.12;64.47;99636.41;4974486;28;20038;-74
2021/05/30 05:57:11;;;;;;;5.47;3.33;;;;;;;13.22;63.82;99622.47;4954343;28;20035;-74
2021/05/30 05:59:37;;;;;;;6.05;3.55;;;;;;;13.44;63.36;99617.84;4959161;28;20113;-76
2021/05/30 06:02:02;;;;;;;6.70;3.70;;;;;;;13.68;63.19;99630.06;4974547;28;20093;-75
2021/05/30 06:04:27;;;;;;;4.50;3.50;;;;;;;13.94;63.50;99640.19;4974044;28;20022;-73
2021/05/30 06:06:53;;;;;;;4.35;3.13;;;;;;;14.03;62.62;99625.34;4965805;28;20026;-77
2021/05/30 06:09:18;;;;;;;5.00;3.67;;;;;;;14.11;61.87;99621.59;4973683;28;20492;-75
2021/05/30 06:11:44;;;;;;;4.55;3.25;;;;;;;14.07;61.22;99642.13;4968768;28;20113;-75
2021/05/30 06:14:10;;;;;;;9.55;3.28;;;;;;;14.28;60.84;99638.41;4970634;28;20046;-71
2021/05/30 06:16:35;;;;;;;4.25;3.13;;;;;;;14.64;60.89;99635.28;4970149;28;20023;-74
2021/05/30 06:19:00;;;;;;;4.65;3.20;;;;;;;14.86;60.36;99616.03;4962478;28;20485;-72
2021/05/30 06:21:26;;;;;;;5.50;3.38;;;;;;;15.24;59.84;99623.50;4960789;28;20027;-73
2021/05/30 06:23:52;;;;;;;5.43;2.47;;;;;;;15.50;58.62;99617.13;4958012;28;20074;-74
2021/05/30 06:26:17;;;;;;;5.72;3.33;;;;;;;15.80;57.93;99613.88;4964156;28;20038;-73
2021/05/30 06:28:42;;;;;;;5.18;3.03;;;;;;;16.09;57.48;99624.22;4962683;28;20047;-74
2021/05/30 06:31:08;;;;;;;6.75;2.75;;;;;;;16.33;54.27;99622.59;4965628;28;20388;-74
2021/05/30 06:33:33;;;;;;;6.40;3.17;;;;;;;16.48;53.54;99624.16;4963362;28;20034;-74
2021/05/30 06:35:58;;;;;;;5.50;2.78;;;;;;;16.52;51.87;99609.84;4969577;28;20042;-75
2021/05/30 06:38:24;;;;;;;4.45;2.90;;;;;;;16.65;50.95;99619.81;4972357;28;20023;-75
2021/05/30 06:40:49;;;;;;;3.90;2.53;;;;;;;17.27;50.12;99628.94;4963632;28;20035;-74
2021/05/30 06:43:15;;;;;;;4.35;2.67;;;;;;;17.29;50.42;99613.16;4970978;28;20038;-77
2021/05/30 06:45:40;;;;;;;4.32;2.92;;;;;;;18.05;48.43;99591.78;4955524;28;20023;-74
2021/05/30 06:48:07;;;;;;;3.45;2.42;;;;;;;19.09;46.24;99623.44;4961331;28;20577;-75
2021/05/30 06:50:32;;;;;;;5.20;2.53;;;;;;;20.09;44.26;99619.53;4979319;28;20041;-74
2021/05/30 06:52:57;;;;;;;4.57;2.42;;;;;;;21.06;42.53;99631.38;4968376;28;20035;-77
2021/05/30 06:55:23;;;;;;;7.53;2.83;;;;;;;22.23;40.89;99623.84;4953737;28;20106;-74
2021/05/30 06:57:49;;;;;;;4.18;2.45;;;;;;;23.28;37.95;99626.94;4959402;28;20043;-75
2021/05/30 07:00:15;;;;;;;3.35;2.30;;;;;;;24.64;35.38;99615.81;4969073;28;20043;-73
2021/05/30 07:02:40;;;;;;;3.45;2.05;;;;;;;25.92;33.90;99606.44;4973850;28;20027;-73
2021/05/30 07:05:07;;;;;;;4.43;2.08;;;;;;;26.55;31.56;99609.41;4974029;28;20477;-73
2021/05/30 07:07:32;;;;;;;4.32;2.40;;;;;;;26.16;31.77;99617.69;4970257;28;20077;-75
2021/05/30 07:09:57;;;;;;;3.47;2.10;;;;;;;25.93;31.08;99620.00;4976090;28;20038;-72
2021/05/30 07:12:23;;;;;;;2.65;2.20;;;;;;;26.38;30.88;99606.16;4971299;28;20041;-74
2021/05/30 07:14:48;;;;;;;4.70;2.20;;;;;;;26.14;32.00;99622.69;4960925;28;20703;-73
2021/05/30 07:17:15;;;;;;;4.53;2.05;;;;;;;26.27;30.56;99619.25;4986220;28;20027;-75
2021/05/30 07:19:40;;;;;;;2.30;2.00;;;;;;;26.09;31.03;99628.25;4965489;28;20033;-78
2021/05/30 07:22:05;;;;;;;3.60;2.13;;;;;;;26.55;30.44;99616.91;4958123;28;20023;-73
2021/05/30 07:24:31;;;;;;;2.92;2.08;;;;;;;26.93;29.88;99611.56;4969285;28;20078;-73
2021/05/30 07:26:56;;;;;;;3.13;1.95;;;;;;;27.21;30.20;99609.94;4981378;28;20085;-73
2021/05/30 07:29:21;;;;;;;3.13;1.80;;;;;;;27.48;29.27;99615.78;4967017;28;20035;-74
2021/05/30 07:31:48;;;;;;;3.55;1.98;;;;;;;28.26;29.21;99615.59;4971842;28;20027;-74
2021/05/30 07:34:13;;;;;;;3.13;1.90;;;;;;;27.90;29.96;99619.72;4971340;28;20158;-73
2021/05/30 07:36:39;;;;;;;3.53;2.05;;;;;;;27.75;30.30;99619.91;4973131;28;20035;-72
2021/05/30 07:39:05;;;;;;;3.90;2.10;;;;;;;28.35;28.86;99614.63;4972224;28;20025;-72
2021/05/30 07:41:32;;;;;;;2.90;1.80;;;;;;;28.81;27.87;99618.66;4972690;28;20045;-75
2021/05/30 07:43:57;;;;;;;3.35;2.00;;;;;;;28.57;28.00;99629.91;4971537;28;20030;-71
2021/05/30 07:46:22;;;;;;;3.78;2.17;;;;;;;28.52;28.25;99614.13;4972140;28;20030;-72
2021/05/30 07:48:47;;;;;;;3.95;2.00;;;;;;;28.79;27.70;99607.00;4970829;28;20015;-71
2021/05/30 07:51:13;;;;;;;3.92;2.28;;;;;;;29.09;27.49;99607.63;4977585;28;20427;-72
2021/05/30 07:53:38;;;;;;;4.32;2.03;;;;;;;28.57;27.32;99602.09;4970519;28;20027;-71
2021/05/30 07:56:03;;;;;;;3.78;2.10;;;;;;;28.79;26.46;99607.00;4969585;28;20556;-71
2021/05/30 07:58:29;;;;;;;2.85;1.80;;;;;;;27.45;27.64;99604.41;4963881;28;20039;-72
2021/05/30 08:00:54;;;;;;;2.47;1.67;;;;;;;27.39;28.34;99613.94;4976322;28;20026;-72
2021/05/30 08:03:21;;;;;;;3.90;1.58;;;;;;;27.64;29.35;99630.31;4970486;28;20066;-73
2021/05/30 08:05:46;;;;;;;4.20;1.80;;;;;;;26.96;30.09;99622.94;4971227;28;20030;-69
2021/05/30 08:08:13;;;;;;;3.97;2.15;;;;;;;28.30;28.72;99628.63;4967428;28;20022;-72
2021/05/30 08:10:38;;;;;;;3.25;2.00;;;;;;;28.19;29.31;99621.53;4971702;28;20074;-78
2021/05/30 08:13:04;;;;;;;3.25;1.95;;;;;;;28.73;28.83;99613.78;4966173;28;20074;-79
2021/05/30 08:15:29;;;;;;;4.28;1.77;;;;;;;29.68;27.88;99617.94;4971459;28;20022;-75
2021/05/30 08:17:55;;;;;;;3.03;1.67;;;;;;;30.40;25.07;99607.19;4969058;28;20543;-75
2021/05/30 08:20:22;;;;;;;2.30;1.73;;;;;;;30.79;24.18;99609.28;4960278;28;20027;-74
2021/05/30 08:22:48;;;;;;;6.57;1.80;;;;;;;29.01;26.18;99606.34;4978941;28;20429;-72
2021/05/30 08:25:18;;;;;;;2.58;1.55;;;;;;;29.40;26.41;99617.06;4957052;28;20030;-77
2021/05/30 08:27:45;;;;;;;2.88;1.95;;;;;;;28.75;26.74;99617.94;4970043;28;20015;-75
2021/05/30 08:30:12;;;;;;;4.40;1.92;;;;;;;27.76;27.72;99616.81;4959174;28;20125;-74
2021/05/30 08:32:37;;;;;;;2.53;1.65;;;;;;;25.48;30.85;99632.91;4958202;28;20034;-73
2021/05/30 08:35:05;;;;;;;4.03;1.90;;;;;;;26.49;29.12;99618.00;4964288;28;20078;-74
2021/05/30 08:37:30;;;;;;;2.25;1.48;;;;;;;26.08;29.34;99615.50;4982472;28;20058;-74
2021/05/30 08:39:55;;;;;;;3.28;1.55;;;;;;;26.56;29.37;99613.00;4965030;28;20061;-75
2021/05/30 08:42:22;;;;;;;3.40;1.60;;;;;;;28.91;27.63;99598.16;4971350;28;20025;-74
2021/05/30 08:44:52;;;;;;;4.30;1.92;;;;;;;29.69;25.21;99585.28;4971840;28;20070;-75
2021/05/30 08:47:21;;;;;;;2.25;1.40;;;;;;;30.25;24.20;99597.19;4970569;28;20026;-75
2021/05/30 08:49:47;;;;;;;4.35;1.70;;;;;;;29.77;25.11;99595.72;4959513;28;20409;-76
2021/05/30 08:52:13;;;;;;;2.78;1.92;;;;;;;30.32;25.52;99597.59;4962664;28;20027;-76
2021/05/30 08:54:38;;;;;;;1.70;1.27;;;;;;;31.09;23.36;99590.91;4969422;28;20023;-76
2021/05/30 08:57:05;;;;;;;3.20;1.60;;;;;;;31.06;23.45;99585.97;4963476;28;20023;-74
2021/05/30 08:59:32;;;;;;;2.60;1.23;;;;;;;30.75;23.25;99583.13;4990901;28;20022;-77
2021/05/30 09:02:09;;;;;;;3.15;1.50;;;;;;;29.17;24.41;99595.78;4987339;28;20069;-73
2021/05/30 09:04:40;;;;;;;2.78;1.83;;;;;;;27.01;27.04;99597.91;4971571;28;20022;-74
2021/05/30 09:07:06;;;;;;;2.97;1.75;;;;;;;28.03;25.90;99601.44;4970283;28;20070;-75
2021/05/30 09:09:40;;;;;;;2.97;1.40;;;;;;;29.76;24.56;99577.31;4971430;28;20037;-75
2021/05/30 09:12:10;;;;;;;3.15;1.50;;;;;;;26.58;26.08;99574.69;4974598;28;20593;-73
2021/05/30 09:14:46;;;;;;;3.67;1.70;;;;;;;26.17;27.64;99588.81;4970642;28;20102;-69
2021/05/30 09:17:11;;;;;;;2.67;2.08;;;;;;;24.84;29.70;99601.16;4976338;28;20499;-74
2021/05/30 09:19:52;;;;;;;2.53;1.75;;;;;;;23.99;30.78;99601.59;4988073;28;20061;-73
2021/05/30 09:22:33;;;;;;;3.03;2.35;;;;;;;25.14;28.68;99597.50;4973767;28;20026;-71
2021/05/30 09:25:11;;;;;;;2.33;2.00;;;;;;;25.66;27.98;99589.91;4969411;28;20031;-71
2021/05/30 09:28:00;;;;;;;2.10;1.50;;;;;;;23.14;29.82;99585.19;5000641;23;20120;-63
2021/05/30 09:30:39;;;;;;;3.67;1.65;;;;;;;25.84;28.46;99588.47;4979242;28;20038;-66
2021/05/30 09:33:18;;;;;;;2.72;1.77;;;;;;;29.42;23.62;99575.78;4973354;28;20026;-66
2021/05/30 09:35:50;;;;;;;2.17;1.33;;;;;;;28.83;24.71;99575.44;4989712;28;20108;-66
2021/05/30 09:38:28;;;;;;;2.40;1.50;;;;;;;28.89;25.08;99581.75;4979730;28;20467;-66
2021/05/30 09:40:59;;;;;;;2.20;1.38;;;;;;;28.22;26.19;99582.00;4988495;28;20035;-67
2021/05/30 09:43:36;;;;;;;2.15;1.40;;;;;;;30.76;24.70;99580.00;4991471;28;20522;-65
2021/05/30 09:46:08;;;;;;;2.40;1.40;;;;;;;29.60;23.81;99575.97;4990116;28;20041;-65
2021/05/30 09:48:38;;;;;;;1.95;1.10;;;;;;;29.78;23.76;99577.00;4975341;28;20034;-66
2021/05/30 09:51:29;;;;;;;3.28;1.55;;;;;;;27.85;24.95;99582.78;4983093;28;20030;-67
2021/05/30 09:53:56;;;;;;;3.10;1.27;;;;;;;28.82;23.47;99570.19;4976472;28;20046;-67
2021/05/30 09:56:32;;;;;;;3.65;1.20;;;;;;;30.92;23.13;99566.50;4990868;28;20065;-66
2021/05/30 09:58:59;;;;;;;2.10;1.13;;;;;;;31.20;22.62;99572.72;4989191;28;20181;-66
2021/05/30 10:01:26;;;;;;;2.50;1.10;;;;;;;31.22;22.40;99572.38;4977270;28;20043;-66
2021/05/30 10:03:55;;;;;;;2.67;1.17;;;;;;;31.20;24.64;99578.31;4974973;28;20042;-67
2021/05/30 10:06:21;;;;;;;2.22;1.30;;;;;;;30.36;24.75;99571.50;4988155;28;20033;-68
2021/05/30 10:08:47;;;;;;;3.05;1.70;;;;;;;29.56;25.49;99572.97;4972747;28;20489;-66
2021/05/30 10:11:16;;;;;;;2.15;1.35;;;;;;;25.82;29.85;99575.97;4970515;28;20034;-67
2021/05/30 10:13:42;;;;;;;3.65;1.92;;;;;;;23.86;32.82;99579.16;4972610;28;20041;-63
2021/05/30 10:16:08;;;;;;;3.95;1.73;;;;;;;22.71;34.70;99588.97;4970994;28;20388;-64
2021/05/30 10:18:39;;;;;;;3.25;1.90;;;;;;;24.31;32.52;99583.94;4978185;28;20524;-64
2021/05/30 10:21:07;;;;;;;3.67;1.58;;;;;;;26.24;30.86;99573.50;4971728;28;20039;-65
2021/05/30 10:23:33;;;;;;;2.78;1.65;;;;;;;26.55;29.97;99589.16;4985735;28;20564;-65
2021/05/30 10:26:15;;;;;;;3.50;1.83;;;;;;;28.35;27.61;99575.69;4986387;28;20040;-65
2021/05/30 10:29:12;;;;;;;2.20;1.40;;;;;;;28.55;26.86;99580.09;4991924;28;20033;-66
2021/05/30 10:31:38;;;;;;;4.03;1.50;;;;;;;30.89;26.17;99567.16;4982171;28;20038;-65
2021/05/30 10:34:10;;;;;;;3.55;1.60;;;;;;;31.48;24.33;99572.53;4992131;28;20030;-65
2021/05/30 10:36:43;;;;;;;2.33;1.42;;;;;;;31.79;22.83;99566.03;4981946;28;20117;-65
2021/05/30 10:39:27;;;;;;;4.32;1.30;;;;;;;27.95;24.75;99580.69;4989141;28;20022;-65
2021/05/30 10:42:17;;;;;;;2.75;1.40;;;;;;;27.06;26.22;99583.97;4973906;28;20531;-64
2021/05/30 10:45:06;;;;;;;2.30;1.23;;;;;;;28.95;24.85;99565.75;4981594;28;20688;-65
2021/05/30 10:47:43;;;;;;;2.90;1.25;;;;;;;29.99;23.89;99561.47;4989341;28;20018;-65
2021/05/30 10:50:14;;;;;;;5.22;1.30;;;;;;;27.46;27.52;99567.97;4991406;28;20069;-65
2021/05/30 10:52:41;;;;;;;2.03;1.48;;;;;;;28.12;27.75;99560.72;4987383;28;20057;-66
2021/05/30 10:55:38;;;;;;;2.95;1.20;;;;;;;26.93;28.98;99565.19;4989738;28;20061;-66
2021/05/30 10:58:17;;;;;;;2.05;1.55;;;;;;;25.09;31.29;99571.78;4976535;28;20073;-65
2021/05/30 11:00:44;;;;;;;2.95;1.63;;;;;;;25.95;29.60;99561.50;4983972;28;20104;-65
2021/05/30 11:03:12;;;;;;;3.00;1.65;;;;;;;26.59;28.25;99563.31;4982276;28;20117;-66
2021/05/30 11:05:54;;;;;;;1.55;1.40;;;;;;;27.59;27.83;99566.44;4982774;28;20034;-67
2021/05/30 11:08:29;;;;;;;2.17;1.30;;;;;;;27.69;27.67;99557.97;4988986;28;20033;-66
2021/05/30 11:11:16;;;;;;;2.55;1.48;;;;;;;26.10;27.89;99561.41;4984263;28;20403;-66
2021/05/30 11:13:51;;;;;;;2.53;1.38;;;;;;;24.59;29.08;99549.41;4989679;28;20131;-66
2021/05/30 11:16:18;;;;;;;2.03;1.33;;;;;;;25.08;28.37;99562.63;4986764;28;20026;-67
2021/05/30 11:18:44;;;;;;;2.78;1.67;;;;;;;26.37;27.83;99560.94;4989663;28;20101;-66
2021/05/30 11:21:09;;;;;;;3.83;1.60;;;;;;;27.91;26.04;99549.06;4990149;28;20140;-66
2021/05/30 11:23:34;;;;;;;3.20;1.27;;;;;;;29.11;23.63;99546.81;4988160;28;20030;-66
2021/05/30 11:26:00;;;;;;;1.70;1.10;;;;;;;29.25;22.97;99542.94;4984247;28;20030;-66
2021/05/30 11:28:27;;;;;;;4.47;1.50;;;;;;;28.95;24.21;99549.91;4990488;28;20026;-67
2021/05/30 11:31:00;;;;;;;2.08;1.20;;;;;;;30.07;23.80;99546.75;4991056;28;20480;-66
2021/05/30 11:33:32;;;;;;;1.40;1.25;;;;;;;29.87;22.91;99542.50;4984515;28;20535;-66
2021/05/30 11:36:08;;;;;;;1.92;1.40;;;;;;;30.48;22.03;99539.41;4972604;28;20113;-67
2021/05/30 11:38:51;;;;;;;2.47;1.20;;;;;;;30.57;22.00;99532.72;4971047;28;20093;-65
2021/05/30 11:41:33;;;;;;;2.10;1.50;;;;;;;31.79;21.59;99543.66;4972163;28;20026;-65